logo tempoitalia

Diretta Meteo Chillicothe Agri-Science Center, Stati Uniti (USA)lunedì 31 agosto ore 00:51

Mappa
Sereno 27 °C Sereno 24 Ore: T.min 24 T.max 36
Ponente Sud Km/h 9.3 Punto di rugiada: 18 °C Umidità: 57% Visibilità: 0 Km
Il sole sorge alle: 06:41 Il sole tramonta alle: 19:47
31 Agosto 2026 00:51 tempo osservato: Sereno Sereno 27 57 1012 vento: Nord S 9.3
30 Agosto 2026 23:51 tempo osservato: Sereno Sereno 27 57 1012 vento: Nord S 9.3
30 Agosto 2026 22:51 tempo osservato: Sereno Sereno 27 61 1012 vento: Nord S/SE 7.4
30 Agosto 2026 21:51 tempo osservato: Sereno Sereno 28 58 1012 vento: Nord S/SE 7.4
30 Agosto 2026 20:51 tempo osservato: Sereno Sereno 29 58 1011 vento: Nord N 5.5
30 Agosto 2026 19:51 tempo osservato: Sereno Sereno 31 52 1011 vento: Nord S/SE 7.4
30 Agosto 2026 18:51 tempo osservato: Sereno Sereno 33 46 1011 vento: Nord S/SE 9.3
30 Agosto 2026 17:51 tempo osservato: Sereno Sereno 34 43 1011 vento: Nord S 11.1
30 Agosto 2026 16:51 tempo osservato: Sereno Sereno 35 39 1011 vento: Nord S 13
30 Agosto 2026 15:51 tempo osservato: Sereno Sereno 36 41 1011 vento: Nord S 13
30 Agosto 2026 14:51 tempo osservato: Sereno Sereno 34 41 1012 vento: Nord S/SO 18.5
30 Agosto 2026 13:51 tempo osservato: Sereno Sereno 33 43 1012 vento: Nord S 14.8
30 Agosto 2026 12:51 tempo osservato: Sereno Sereno 32 46 1013 vento: Nord S 25.9
30 Agosto 2026 11:51 tempo osservato: Sereno Sereno 31 48 1014 vento: Nord S 20.3
30 Agosto 2026 10:51 tempo osservato: Sereno Sereno 28 54 1014 vento: Nord S 18.5
30 Agosto 2026 09:51 tempo osservato: Sereno Sereno 26 61 1014 vento: Nord N 7.4
30 Agosto 2026 08:51 tempo osservato: Sereno Sereno 26 57 1013 vento: Nord S 20.3
30 Agosto 2026 07:51 tempo osservato: Sereno Sereno 24 64 1014 vento: Nord S 18.5
30 Agosto 2026 06:51 tempo osservato: Sereno Sereno 24 60 1014 vento: Nord S 9.3
30 Agosto 2026 05:51 tempo osservato: Sereno Sereno 24 60 1014 vento: Nord S 13
30 Agosto 2026 04:51 tempo osservato: Sereno Sereno 24 60 1014 vento: Nord S 13
30 Agosto 2026 03:51 tempo osservato: Sereno Sereno 24 60 1013 vento: Nord S 13
30 Agosto 2026 02:51 tempo osservato: Sereno Sereno 24 64 1013 vento: Nord S 9.3
30 Agosto 2026 01:51 tempo osservato: Sereno Sereno 25 61 1013 vento: Nord S 13